Terminal Aerodrome Forecast
Issued by NWS

Home | Current Version | Previous Version | Text Only | Print | Product List | Glossary On
Versions: 1 2 3 4 5 6 7 8 9 10 11 12 13 14 15 16
933
FTUS42 KTBW 230547
TAFRSW
TAF
KRSW 230547Z 2306/2406 VRB05KT P6SM SCT025 BKN110
     FM231300 18012KT P6SM SCT030 BKN250
     FM231800 23016G22KT P6SM SCT030 BKN250
     FM240100 VRB06KT P6SM FEW030 SCT120 BKN250=

USA.gov is the U.S. government's official web portal to all federal, state and local government web resources and services.